PWSweather.com
Personal Weather Stations
Station Observations
MARICOPA
Cobblestone Farms, Maricopa, AZ 85139

Cobblestone FarmsMaricopa, AZ 85139

Lat: 33.076, Lon: -112.0445

Elevation: 1148

Station Type: LaCrosse 2310/15

http://weather.azkiwis.net

Latest ConditionsUpdated 6:00:00 AM MST Saturday, Jul 23, 2016
Currently Today's Max Today's Min Today's Average
Temperature 87.1°F30.6°C 92.7°F33.7°C 85.3°F29.6°C 88.5°F31.4°C
Dew Point 59.1°F15.1°C 59.1°F15.1°C 51.3°F10.7°C 53.6°F12.0°C
Winds 1.2 mph SW1.9 kmh SW 8.1 mph SSE13.0 kmh SSE - 1.4 mph 2.3 kmh
Wind Gusts 1.2 mph1.9 kmh 8.1 mph13.0 kmh - -
Humidity 39% 39% 25% 31%
Pressure 29.85 in1010.8 mb 29.85 in1010.8 mb 29.80 in1009.1 mb -
Hour Temp Dew Point Humidity Winds Wind Gusts Pressure Precip Precip Rate Daily Precip Total
06:00 AM 87.1°F30.6°C 59.1°F15.1°C 39% 1.2 mph SW1.9 kmh SW 1.2 mph1.9 kmh 29.85 in1010.8 mb - 0.00 in0.0 mm 0.00 in0.0 mm
05:45 AM 87.1°F30.6°C 59.1°F15.1°C 39% 1.2 mph SW1.9 kmh SW 1.2 mph1.9 kmh 29.85 in1010.8 mb - 0.00 in0.0 mm 0.00 in0.0 mm
05:30 AM 86.8°F30.4°C 57.4°F14.1°C 37% Calm Calm -- 29.83 in1010.2 mb - 0.00 in0.0 mm 0.00 in0.0 mm
05:15 AM 87.1°F30.6°C 57.7°F14.3°C 37% 1.2 mph WSW1.9 kmh WSW 1.2 mph1.9 kmh 29.82 in1009.8 mb - 0.00 in0.0 mm 0.00 in0.0 mm
05:00 AM 87.1°F30.6°C 56.1°F13.4°C 35% 2.3 mph SSE3.7 kmh SSE 2.3 mph3.7 kmh 29.83 in1010.2 mb - 0.00 in0.0 mm 0.00 in0.0 mm
04:45 AM 85.8°F29.9°C 53.4°F11.9°C 33% 8.1 mph SSE13.0 kmh SSE 8.1 mph13.0 kmh 29.83 in1010.2 mb - 0.00 in0.0 mm 0.00 in0.0 mm
04:30 AM 85.3°F29.6°C 52.9°F11.6°C 33% Calm Calm -- 29.81 in1009.5 mb - 0.00 in0.0 mm 0.00 in0.0 mm
04:15 AM 85.6°F29.8°C 52.4°F11.3°C 32% Calm Calm -- 29.81 in1009.5 mb - 0.00 in0.0 mm 0.00 in0.0 mm
04:00 AM 86.0°F30.0°C 52.7°F11.5°C 32% Calm Calm -- 29.81 in1009.5 mb - 0.00 in0.0 mm 0.00 in0.0 mm
03:45 AM 86.5°F30.3°C 52.3°F11.3°C 31% 1.2 mph E1.9 kmh E 1.2 mph1.9 kmh 29.81 in1009.5 mb - 0.00 in0.0 mm 0.00 in0.0 mm
03:30 AM 87.4°F30.8°C 52.2°F11.2°C 30% Calm Calm -- 29.81 in1009.5 mb - 0.00 in0.0 mm 0.00 in0.0 mm
03:15 AM 87.6°F30.9°C 52.4°F11.3°C 30% 1.2 mph W1.9 kmh W 1.2 mph1.9 kmh 29.81 in1009.5 mb - 0.00 in0.0 mm 0.00 in0.0 mm
03:00 AM 88.5°F31.4°C 51.3°F10.7°C 28% 2.3 mph NNE3.7 kmh NNE 2.3 mph3.7 kmh 29.80 in1009.1 mb - 0.00 in0.0 mm 0.00 in0.0 mm
02:45 AM 88.5°F31.4°C 51.3°F10.7°C 28% 2.3 mph NNE3.7 kmh NNE 2.3 mph3.7 kmh 29.80 in1009.1 mb - 0.00 in0.0 mm 0.00 in0.0 mm
02:30 AM 88.0°F31.1°C 52.7°F11.5°C 30% 3.5 mph NW5.6 kmh NW 4.6 mph7.4 kmh 29.81 in1009.5 mb - 0.00 in0.0 mm 0.00 in0.0 mm
02:15 AM 90.3°F32.4°C 53.7°F12.1°C 29% 2.3 mph NNW3.7 kmh NNW 2.3 mph3.7 kmh 29.81 in1009.5 mb - 0.00 in0.0 mm 0.00 in0.0 mm
02:00 AM 90.3°F32.4°C 53.7°F12.1°C 29% 2.3 mph NNW3.7 kmh NNW 2.3 mph3.7 kmh 29.81 in1009.5 mb - 0.00 in0.0 mm 0.00 in0.0 mm
01:30 AM 90.3°F32.4°C 53.7°F12.1°C 29% 2.3 mph WNW3.7 kmh WNW 2.3 mph3.7 kmh 29.82 in1009.8 mb - 0.00 in0.0 mm 0.00 in0.0 mm
01:15 AM 90.3°F32.4°C 53.7°F12.1°C 29% 1.2 mph WNW1.9 kmh WNW 1.2 mph1.9 kmh 29.82 in1009.8 mb - 0.00 in0.0 mm 0.00 in0.0 mm
01:00 AM 91.2°F32.9°C 51.5°F10.8°C 26% Calm Calm -- 29.82 in1009.8 mb - 0.00 in0.0 mm 0.00 in0.0 mm
12:45 AM 91.2°F32.9°C 51.5°F10.8°C 26% Calm Calm -- 29.82 in1009.8 mb - 0.00 in0.0 mm 0.00 in0.0 mm
12:30 AM 91.6°F33.1°C 51.8°F11.0°C 26% Calm Calm -- 29.82 in1009.8 mb - 0.00 in0.0 mm 0.00 in0.0 mm
12:15 AM 91.9°F33.3°C 52.2°F11.2°C 26% Calm Calm -- 29.82 in1009.8 mb - 0.00 in0.0 mm 0.00 in0.0 mm
12:00 AM 92.7°F33.7°C 51.7°F10.9°C 25% Calm Calm -- 29.82 in1009.8 mb - 0.00 in0.0 mm 0.00 in0.0 mm